Time;durP1;ratioP1;P1;durP2;ratioP2;P2;SDS_P1;SDS_P2;PMS_P1;PMS_P2;Temp;Humidity;BMP_temperature;BMP_pressure;BME280_temperature;BME280_humidity;BME280_pressure;Samples;Min_cycle;Max_cycle;Signal;HPM_P1;HPM_P2
2021/04/13 08:53:37;;;;;;;0.20;0.10;;;8.50;99.90;;;;;;12874468;22;791190;-79
2021/04/13 08:59:06;;;;;;;0.60;0.33;;;9.00;99.90;;;;;;13034392;22;20033;-80
2021/04/13 09:04:29;;;;;;;14.70;0.45;;;9.40;99.90;;;;;;13025358;22;20023;-46
2021/04/13 09:10:15;;;;;;;0.93;0.20;;;9.50;99.90;;;;;;13032926;22;20303;-46
2021/04/13 09:15:48;;;;;;;1.20;0.40;;;8.90;99.90;;;;;;13034615;22;20072;-46
2021/04/13 09:21:25;;;;;;;1.42;0.47;;;8.80;99.90;;;;;;13034565;22;20434;-46
2021/04/13 09:27:03;;;;;;;0.55;0.15;;;9.10;99.90;;;;;;13027491;22;20661;-46
2021/04/13 09:32:30;;;;;;;0.77;0.47;;;9.70;99.90;;;;;;13034606;22;20015;-46
2021/04/13 09:38:12;;;;;;;0.57;0.20;;;10.30;99.90;;;;;;13022481;22;20015;-46
2021/04/13 09:44:04;;;;;;;4.80;0.50;;;10.70;99.90;;;;;;13018194;22;20299;-46
2021/04/13 09:49:56;;;;;;;1.45;0.28;;;10.70;99.90;;;;;;13020588;22;20028;-46
2021/04/13 09:55:36;;;;;;;3.13;0.30;;;11.00;99.90;;;;;;12991604;22;20043;-46
2021/04/13 10:01:34;;;;;;;2.58;0.30;;;10.70;99.90;;;;;;12960436;22;20036;-46
2021/04/13 10:07:19;;;;;;;0.52;0.20;;;10.60;99.90;;;;;;12797612;22;20029;-46
2021/04/13 10:13:11;;;;;;;0.55;0.20;;;10.90;97.00;;;;;;12829445;22;20138;-46
2021/04/13 10:18:44;;;;;;;2.05;0.40;;;10.80;99.90;;;;;;12743481;23;20009;-46
2021/04/13 10:24:30;;;;;;;0.65;0.10;;;10.90;99.90;;;;;;12738534;23;20242;-46
2021/04/13 10:30:11;;;;;;;2.83;0.20;;;11.80;97.80;;;;;;12743999;23;20487;-46
2021/04/13 10:35:47;;;;;;;0.68;0.22;;;12.30;94.10;;;;;;12779051;22;20013;-46
2021/04/13 10:41:17;;;;;;;0.93;0.20;;;12.50;92.40;;;;;;12744971;23;20013;-46
2021/04/13 10:46:50;;;;;;;6.95;1.52;;;11.80;97.10;;;;;;12731290;23;20406;-46
2021/04/13 10:52:31;;;;;;;1.00;0.65;;;10.70;98.60;;;;;;12741395;23;20312;-46
2021/04/13 10:58:13;;;;;;;3.17;0.20;;;11.30;99.90;;;;;;12826885;22;20478;-46
2021/04/13 11:03:49;;;;;;;1.48;0.30;;;12.60;95.80;;;;;;12828934;22;20097;-46
2021/04/13 11:09:37;;;;;;;0.40;0.20;;;12.60;88.80;;;;;;12743696;23;20088;-46
2021/04/13 11:15:13;;;;;;;0.70;0.55;;;11.80;96.70;;;;;;12744542;23;20408;-46
2021/04/13 11:20:38;;;;;;;0.50;0.10;;;11.10;97.60;;;;;;12741265;23;20527;-46
2021/04/13 11:26:37;;;;;;;1.15;0.25;;;12.60;94.00;;;;;;12742194;23;20013;-46
2021/04/13 11:32:54;;;;;;;2.03;0.10;;;13.20;89.00;;;;;;12745587;23;20009;-46
2021/04/13 11:38:43;;;;;;;0.32;0.10;;;12.00;91.40;;;;;;12743712;23;20365;-46
2021/04/13 11:44:59;;;;;;;0.47;0.17;;;13.00;87.50;;;;;;12741615;23;20122;-46
2021/04/13 11:50:44;;;;;;;0.95;0.35;;;12.30;83.20;;;;;;12930294;22;20054;-46
2021/04/13 11:56:28;;;;;;;3.95;1.20;;;11.40;93.10;;;;;;12742641;22;20328;-46
2021/04/13 12:02:16;;;;;;;0.63;0.22;;;11.50;95.70;;;;;;12740786;23;20021;-47
2021/04/13 12:07:48;;;;;;;3.38;0.22;;;13.70;91.00;;;;;;12741154;23;20071;-48
2021/04/13 12:13:30;;;;;;;0.57;0.10;;;14.10;72.40;;;;;;12739840;23;20074;-47
2021/04/13 12:19:11;;;;;;;0.55;0.22;;;12.60;75.70;;;;;;12740472;23;20569;-47
2021/04/13 12:24:38;;;;;;;0.17;0.10;;;11.80;91.50;;;;;;12744288;23;20431;-47
2021/04/13 12:30:32;;;;;;;2.70;0.30;;;13.30;82.50;;;;;;12744513;23;20444;-47
2021/04/13 12:35:56;;;;;;;0.60;0.10;;;13.10;80.40;;;;;;12736124;23;20455;-47
2021/04/13 12:41:25;;;;;;;3.88;1.52;;;12.10;85.30;;;;;;12735135;23;20435;-47
2021/04/13 12:46:47;;;;;;;2.35;1.00;;;11.20;90.00;;;;;;12735353;23;20021;-47
2021/04/13 12:52:20;;;;;;;0.52;0.20;;;10.80;93.20;;;;;;12719181;23;20005;-47
2021/04/13 12:57:56;;;;;;;1.08;0.40;;;10.60;93.40;;;;;;12726844;23;20426;-47
2021/04/13 13:03:37;;;;;;;1.58;0.68;;;11.20;95.40;;;;;;12729963;23;20094;-48
2021/04/13 13:09:18;;;;;;;0.98;0.30;;;11.30;89.80;;;;;;12731820;23;20465;-48
2021/04/13 13:14:42;;;;;;;2.30;0.52;;;11.50;90.30;;;;;;12729999;23;20117;-48
2021/04/13 13:20:06;;;;;;;1.05;0.30;;;13.00;91.50;;;;;;12837065;22;20333;-48
2021/04/13 13:25:35;;;;;;;0.60;0.20;;;15.00;69.70;;;;;;12936052;22;20255;-48
2021/04/13 13:30:56;;;;;;;0.70;0.30;;;17.00;59.30;;;;;;13063432;22;20420;-48
2021/04/13 13:36:17;;;;;;;1.23;0.30;;;15.90;53.50;;;;;;13057649;22;20185;-47
2021/04/13 13:41:44;;;;;;;1.67;0.20;;;14.30;58.80;;;;;;13064289;22;20099;-47
2021/04/13 13:47:18;;;;;;;1.85;0.30;;;13.00;70.00;;;;;;13067158;22;20011;-47
2021/04/13 13:52:44;;;;;;;0.45;0.08;;;12.10;71.70;;;;;;13058290;22;20021;-48
2021/04/13 13:58:07;;;;;;;1.38;0.45;;;11.60;79.20;;;;;;13061591;22;20450;-49
2021/04/13 14:03:42;;;;;;;1.33;0.30;;;11.30;89.60;;;;;;13062686;22;20023;-49
2021/04/13 14:09:13;;;;;;;2.42;0.30;;;11.10;84.40;;;;;;13064699;22;20376;-47
2021/04/13 14:14:36;;;;;;;0.30;0.20;;;11.00;79.00;;;;;;13053653;22;20011;-47
2021/04/13 14:20:07;;;;;;;0.85;0.30;;;10.80;79.50;;;;;;13062302;22;20034;-47
2021/04/13 14:25:32;;;;;;;0.60;0.20;;;10.60;82.30;;;;;;13063674;22;20014;-47
2021/04/13 14:30:55;;;;;;;0.88;0.32;;;10.60;79.20;;;;;;13062323;22;20195;-47
2021/04/13 14:36:16;;;;;;;3.03;0.50;;;10.50;77.40;;;;;;13065428;22;20097;-47
2021/04/13 14:41:37;;;;;;;1.38;0.60;;;10.60;77.10;;;;;;13066025;22;20103;-47
2021/04/13 14:47:00;;;;;;;1.92;0.75;;;10.80;74.10;;;;;;13068075;22;20045;-47
2021/04/13 14:52:23;;;;;;;3.63;0.40;;;11.00;76.00;;;;;;13063479;22;20011;-47
2021/04/13 14:57:45;;;;;;;0.35;0.20;;;10.90;79.80;;;;;;13049287;22;20015;-47
2021/04/13 15:03:08;;;;;;;1.30;0.98;;;10.60;80.00;;;;;;13059165;22;20023;-47
2021/04/13 15:08:30;;;;;;;0.88;0.40;;;10.20;86.30;;;;;;13065554;22;20010;-46
2021/04/13 15:13:51;;;;;;;2.25;1.15;;;10.10;87.70;;;;;;13052380;22;20015;-47
2021/04/13 15:19:12;;;;;;;1.85;0.30;;;10.00;90.80;;;;;;13053778;22;20029;-47
2021/04/13 15:24:33;;;;;;;1.15;0.73;;;9.80;93.40;;;;;;13062013;22;20029;-47
2021/04/13 15:29:59;;;;;;;1.33;0.47;;;9.90;86.20;;;;;;13064349;22;20010;-47
2021/04/13 15:35:24;;;;;;;1.48;0.75;;;9.70;92.90;;;;;;13065606;22;20025;-47
2021/04/13 15:40:50;;;;;;;4.45;1.17;;;9.90;94.70;;;;;;13063127;22;20026;-47
2021/04/13 15:46:22;;;;;;;1.75;0.82;;;10.00;89.70;;;;;;13064825;22;20850;-47
2021/04/13 15:51:44;;;;;;;2.28;0.75;;;10.10;91.10;;;;;;13067925;22;20037;-47
2021/04/13 15:57:05;;;;;;;1.63;0.70;;;10.40;89.40;;;;;;13066884;22;20409;-47
2021/04/13 16:02:27;;;;;;;1.52;0.70;;;10.70;86.90;;;;;;13066833;22;20125;-47
2021/04/13 16:07:48;;;;;;;1.23;0.40;;;10.90;85.20;;;;;;13065187;22;20018;-46
2021/04/13 16:13:09;;;;;;;1.92;0.55;;;10.80;82.00;;;;;;13067810;22;20013;-47
2021/04/13 16:18:30;;;;;;;2.30;0.90;;;10.70;82.80;;;;;;13066547;22;20007;-47
2021/04/13 16:23:51;;;;;;;0.98;0.50;;;10.50;87.60;;;;;;13068270;22;20018;-47
2021/04/13 16:29:13;;;;;;;0.75;0.52;;;10.30;87.70;;;;;;13066107;22;20019;-47
2021/04/13 16:34:35;;;;;;;1.17;0.50;;;10.10;92.10;;;;;;13065304;22;20015;-48
2021/04/13 16:40:11;;;;;;;1.20;0.50;;;10.20;84.40;;;;;;13061752;22;20026;-49
2021/04/13 16:45:45;;;;;;;3.25;1.40;;;9.90;90.40;;;;;;13062125;22;20015;-48
2021/04/13 16:51:33;;;;;;;0.82;0.35;;;9.80;88.70;;;;;;13058037;22;20272;-49
2021/04/13 16:56:56;;;;;;;1.38;0.50;;;9.60;88.30;;;;;;13059445;22;20015;-47
2021/04/13 17:02:38;;;;;;;1.92;0.70;;;9.50;90.60;;;;;;13063909;22;20019;-48
2021/04/13 17:08:22;;;;;;;1.63;0.57;;;9.40;90.40;;;;;;13067275;22;20116;-48
2021/04/13 17:14:11;;;;;;;1.38;0.43;;;9.30;87.80;;;;;;13069376;22;20014;-48
2021/04/13 17:19:37;;;;;;;0.77;0.28;;;9.20;90.40;;;;;;13071619;22;20076;-48
2021/04/13 17:25:03;;;;;;;1.00;0.40;;;9.00;90.40;;;;;;13072013;22;20080;-48
2021/04/13 17:30:35;;;;;;;1.67;0.40;;;9.00;90.30;;;;;;13072066;22;20046;-48
2021/04/13 17:36:08;;;;;;;0.93;0.35;;;8.80;93.60;;;;;;13070431;22;20039;-48
2021/04/13 17:41:53;;;;;;;1.35;0.30;;;8.70;95.30;;;;;;13072602;22;20010;-48
2021/04/13 17:47:27;;;;;;;0.40;0.10;;;8.50;98.10;;;;;;13071929;22;20541;-48
2021/04/13 17:52:53;;;;;;;1.10;0.50;;;8.40;97.20;;;;;;13071574;22;20018;-48
2021/04/13 17:58:14;;;;;;;2.15;0.75;;;8.30;96.90;;;;;;13066841;22;20481;-48
2021/04/13 18:04:07;;;;;;;1.83;0.73;;;8.20;99.80;;;;;;13067405;22;20035;-48
2021/04/13 18:09:44;;;;;;;1.25;0.55;;;8.10;99.80;;;;;;13070144;22;20030;-48
2021/04/13 18:15:14;;;;;;;1.08;0.40;;;8.00;99.90;;;;;;13068105;22;20042;-48
2021/04/13 18:20:39;;;;;;;1.33;0.40;;;7.80;99.90;;;;;;13066713;22;20008;-48
2021/04/13 18:26:05;;;;;;;1.20;0.22;;;7.70;99.90;;;;;;13069682;22;20071;-48
2021/04/13 18:31:32;;;;;;;0.55;0.20;;;7.50;99.90;;;;;;13067322;22;20041;-48
2021/04/13 18:36:58;;;;;;;0.57;0.15;;;7.30;99.90;;;;;;13066862;22;20076;-48
2021/04/13 18:42:22;;;;;;;0.40;0.17;;;7.20;99.90;;;;;;13068016;22;20015;-48
2021/04/13 18:47:55;;;;;;;0.93;0.30;;;7.00;99.90;;;;;;13068601;22;20026;-48
2021/04/13 18:53:24;;;;;;;0.88;0.40;;;6.90;99.90;;;;;;13071472;22;20592;-48
2021/04/13 18:58:53;;;;;;;1.02;0.75;;;6.70;99.90;;;;;;13067919;22;20464;-48
2021/04/13 19:04:14;;;;;;;5.93;0.40;;;6.50;99.90;;;;;;13069135;22;20027;-47
2021/04/13 19:09:39;;;;;;;2.97;0.38;;;6.40;99.90;;;;;;13066752;22;20015;-48
2021/04/13 19:15:24;;;;;;;0.93;0.40;;;6.20;99.90;;;;;;13068357;22;20042;-48
2021/04/13 19:20:55;;;;;;;0.60;0.30;;;6.00;99.90;;;;;;13064571;22;20014;-48
2021/04/13 19:26:31;;;;;;;1.58;0.60;;;5.80;99.90;;;;;;13065657;22;20034;-48
2021/04/13 19:32:14;;;;;;;2.75;0.68;;;5.70;99.90;;;;;;13064600;22;20673;-48
2021/04/13 19:37:50;;;;;;;1.70;0.40;;;5.60;99.90;;;;;;13063242;22;20118;-50
2021/04/13 19:43:25;;;;;;;1.33;0.60;;;5.40;99.90;;;;;;13060451;22;20027;-50
2021/04/13 19:49:04;;;;;;;1.30;0.50;;;5.30;99.90;;;;;;13058887;22;20007;-50
2021/04/13 19:54:33;;;;;;;1.00;0.32;;;5.20;99.90;;;;;;13064520;22;20478;-50
2021/04/13 20:00:03;;;;;;;0.68;0.30;;;5.10;99.90;;;;;;13048046;22;20011;-48
2021/04/13 20:05:25;;;;;;;0.80;0.40;;;5.10;99.90;;;;;;13051740;22;20027;-48
2021/04/13 20:10:53;;;;;;;1.52;0.50;;;5.00;99.90;;;;;;13051205;22;20011;-47
2021/04/13 20:16:54;;;;;;;1.73;0.40;;;4.90;99.90;;;;;;13055742;22;20007;-49
2021/04/13 20:22:15;;;;;;;1.10;0.63;;;4.90;99.90;;;;;;13055767;22;20042;-47
2021/04/13 20:27:40;;;;;;;1.33;0.32;;;4.70;99.90;;;;;;13058131;22;20019;-48
2021/04/13 20:33:14;;;;;;;1.15;0.30;;;4.70;99.90;;;;;;13065825;22;20332;-48
2021/04/13 20:38:40;;;;;;;1.88;0.57;;;4.60;99.90;;;;;;13065086;22;20064;-47
2021/04/13 20:44:05;;;;;;;2.40;0.55;;;4.70;99.90;;;;;;13061128;22;20010;-47
2021/04/13 20:49:40;;;;;;;1.17;0.50;;;4.60;99.90;;;;;;13072510;22;20014;-47
2021/04/13 20:55:07;;;;;;;1.20;0.52;;;4.60;99.90;;;;;;13074332;22;20030;-47
2021/04/13 21:00:32;;;;;;;1.48;0.60;;;4.60;99.90;;;;;;13076640;22;20499;-48
2021/04/13 21:06:06;;;;;;;2.17;0.93;;;4.50;99.90;;;;;;13080367;22;20030;-48
2021/04/13 21:11:34;;;;;;;3.33;0.65;;;4.50;99.90;;;;;;13081547;22;20018;-48
2021/04/13 21:16:58;;;;;;;1.40;0.73;;;4.40;99.90;;;;;;13080306;22;20354;-47
2021/04/13 21:22:33;;;;;;;1.13;0.30;;;4.40;99.90;;;;;;13078778;22;20018;-48
2021/04/13 21:27:57;;;;;;;1.80;0.50;;;4.40;99.90;;;;;;13077638;22;20015;-48
2021/04/13 21:33:52;;;;;;;1.13;0.40;;;4.40;99.90;;;;;;13079674;22;20098;-48
2021/04/13 21:39:16;;;;;;;0.68;0.40;;;4.40;99.90;;;;;;13081189;22;20018;-48
2021/04/13 21:44:57;;;;;;;6.97;0.98;;;4.40;99.90;;;;;;13084177;22;20017;-48
2021/04/13 21:50:24;;;;;;;3.33;0.95;;;4.30;99.90;;;;;;13087755;22;20045;-48
2021/04/13 21:55:45;;;;;;;2.08;1.00;;;4.20;99.90;;;;;;13084756;22;20031;-47
2021/04/13 22:01:32;;;;;;;0.98;0.30;;;4.10;99.90;;;;;;13086446;22;20018;-47
2021/04/13 22:07:17;;;;;;;1.30;0.40;;;3.90;99.90;;;;;;13083048;22;20022;-47
2021/04/13 22:12:41;;;;;;;4.03;1.30;;;3.90;99.90;;;;;;13080679;22;20448;-47
2021/04/13 22:18:14;;;;;;;1.30;0.57;;;3.90;99.90;;;;;;13083605;22;20014;-47
2021/04/13 22:23:40;;;;;;;1.58;0.57;;;3.90;99.90;;;;;;13081376;22;20011;-47
2021/04/13 22:29:18;;;;;;;1.55;0.60;;;4.00;99.90;;;;;;13082103;22;20425;-48
2021/04/13 22:34:46;;;;;;;1.50;0.63;;;4.00;99.90;;;;;;13082859;22;20014;-48
2021/04/13 22:40:11;;;;;;;1.63;0.50;;;4.00;99.90;;;;;;13082199;22;20011;-48
2021/04/13 22:45:32;;;;;;;1.25;0.63;;;4.00;99.90;;;;;;13086842;22;20014;-47
2021/04/13 22:50:53;;;;;;;1.67;0.90;;;4.00;99.90;;;;;;13085416;22;20019;-47
2021/04/13 22:56:28;;;;;;;2.53;0.65;;;4.00;99.90;;;;;;13083752;22;20019;-47
2021/04/13 23:01:49;;;;;;;10.95;2.47;;;4.00;99.90;;;;;;13080951;22;20022;-47
2021/04/13 23:07:10;;;;;;;0.80;0.32;;;3.90;99.90;;;;;;13083764;22;20599;-48
2021/04/13 23:12:31;;;;;;;0.90;0.50;;;3.90;99.90;;;;;;13082995;22;20122;-48
2021/04/13 23:17:53;;;;;;;2.22;1.13;;;3.90;99.90;;;;;;13081175;22;20315;-48
2021/04/13 23:23:13;;;;;;;3.95;0.63;;;4.00;99.90;;;;;;13083828;22;20022;-48
2021/04/13 23:28:34;;;;;;;2.58;0.98;;;3.90;99.90;;;;;;13079413;22;20058;-48
2021/04/13 23:33:56;;;;;;;2.50;0.55;;;3.70;99.90;;;;;;13082345;22;20206;-48
2021/04/13 23:39:17;;;;;;;2.08;1.08;;;3.70;99.90;;;;;;13083295;22;20014;-48
2021/04/13 23:44:39;;;;;;;1.30;0.60;;;3.60;99.90;;;;;;13085998;22;20023;-48
2021/04/13 23:50:00;;;;;;;1.30;0.63;;;3.60;99.90;;;;;;13085316;22;20457;-47
2021/04/13 23:55:21;;;;;;;2.63;0.93;;;3.60;99.90;;;;;;13083071;22;20089;-47
